sensor_id;sensor_type;location;lat;lon;timestamp;temperature;humidity
21928;DHT22;11128;51.096;17.190;2022-12-07T00:00:06;2.60;99.90
21928;DHT22;11128;51.096;17.190;2022-12-07T00:05:07;2.60;99.90
21928;DHT22;11128;51.096;17.190;2022-12-07T00:10:09;3.20;99.90
21928;DHT22;11128;51.096;17.190;2022-12-07T00:15:10;2.60;99.90
21928;DHT22;11128;51.096;17.190;2022-12-07T00:20:12;2.60;99.90
21928;DHT22;11128;51.096;17.190;2022-12-07T00:25:13;2.60;99.90
21928;DHT22;11128;51.096;17.190;2022-12-07T00:30:14;2.60;99.90
21928;DHT22;11128;51.096;17.190;2022-12-07T00:35:16;2.60;99.90
21928;DHT22;11128;51.096;17.190;2022-12-07T00:40:17;3.60;99.90
21928;DHT22;11128;51.096;17.190;2022-12-07T00:45:18;2.50;99.90
21928;DHT22;11128;51.096;17.190;2022-12-07T00:50:19;3.30;99.90
21928;DHT22;11128;51.096;17.190;2022-12-07T00:55:21;2.80;99.90
21928;DHT22;11128;51.096;17.190;2022-12-07T01:00:22;2.50;99.90
21928;DHT22;11128;51.096;17.190;2022-12-07T01:05:23;2.50;99.90
21928;DHT22;11128;51.096;17.190;2022-12-07T01:10:25;2.60;99.90
21928;DHT22;11128;51.096;17.190;2022-12-07T01:15:27;2.70;99.90
21928;DHT22;11128;51.096;17.190;2022-12-07T01:20:28;2.60;99.90
21928;DHT22;11128;51.096;17.190;2022-12-07T01:25:30;2.40;99.90
21928;DHT22;11128;51.096;17.190;2022-12-07T01:30:32;2.20;99.90
21928;DHT22;11128;51.096;17.190;2022-12-07T01:35:33;2.50;99.90
21928;DHT22;11128;51.096;17.190;2022-12-07T01:40:35;2.80;99.90
21928;DHT22;11128;51.096;17.190;2022-12-07T01:45:39;3.30;99.90
21928;DHT22;11128;51.096;17.190;2022-12-07T01:50:43;2.50;99.90
21928;DHT22;11128;51.096;17.190;2022-12-07T01:55:47;2.90;99.90
21928;DHT22;11128;51.096;17.190;2022-12-07T02:00:50;2.80;99.90
21928;DHT22;11128;51.096;17.190;2022-12-07T02:05:53;2.50;99.90
21928;DHT22;11128;51.096;17.190;2022-12-07T02:10:54;2.50;99.90
21928;DHT22;11128;51.096;17.190;2022-12-07T02:31:46;2.40;99.90
21928;DHT22;11128;51.096;17.190;2022-12-07T02:36:59;2.60;99.90
21928;DHT22;11128;51.096;17.190;2022-12-07T02:42:02;2.40;99.90
21928;DHT22;11128;51.096;17.190;2022-12-07T02:47:11;2.70;99.90
21928;DHT22;11128;51.096;17.190;2022-12-07T02:52:13;2.30;99.90
21928;DHT22;11128;51.096;17.190;2022-12-07T03:02:40;2.20;99.90
21928;DHT22;11128;51.096;17.190;2022-12-07T03:19:08;2.20;99.90
21928;DHT22;11128;51.096;17.190;2022-12-07T03:24:17;2.20;99.90
21928;DHT22;11128;51.096;17.190;2022-12-07T03:29:27;2.20;99.90
21928;DHT22;11128;51.096;17.190;2022-12-07T03:34:38;2.20;99.90
21928;DHT22;11128;51.096;17.190;2022-12-07T03:39:57;2.20;99.90
21928;DHT22;11128;51.096;17.190;2022-12-07T03:45:02;2.20;99.90
21928;DHT22;11128;51.096;17.190;2022-12-07T03:50:21;2.20;99.90
21928;DHT22;11128;51.096;17.190;2022-12-07T03:55:25;2.20;99.90
21928;DHT22;11128;51.096;17.190;2022-12-07T04:00:27;2.10;99.90
21928;DHT22;11128;51.096;17.190;2022-12-07T04:05:29;2.50;99.90
21928;DHT22;11128;51.096;17.190;2022-12-07T04:10:31;2.70;99.90
21928;DHT22;11128;51.096;17.190;2022-12-07T04:15:32;2.10;99.90
21928;DHT22;11128;51.096;17.190;2022-12-07T04:25:35;2.20;99.90
21928;DHT22;11128;51.096;17.190;2022-12-07T04:30:36;2.10;99.90
21928;DHT22;11128;51.096;17.190;2022-12-07T04:35:37;2.20;99.90
21928;DHT22;11128;51.096;17.190;2022-12-07T04:40:39;2.30;99.90
21928;DHT22;11128;51.096;17.190;2022-12-07T04:45:44;3.70;99.90
21928;DHT22;11128;51.096;17.190;2022-12-07T04:50:48;2.20;99.90
21928;DHT22;11128;51.096;17.190;2022-12-07T04:55:50;2.20;99.90
21928;DHT22;11128;51.096;17.190;2022-12-07T05:00:55;2.10;99.90
21928;DHT22;11128;51.096;17.190;2022-12-07T05:05:56;2.80;99.90
21928;DHT22;11128;51.096;17.190;2022-12-07T05:10:58;3.10;99.90
21928;DHT22;11128;51.096;17.190;2022-12-07T05:15:59;2.10;99.90
21928;DHT22;11128;51.096;17.190;2022-12-07T05:21:01;2.10;99.90
21928;DHT22;11128;51.096;17.190;2022-12-07T05:26:02;2.10;99.90
21928;DHT22;11128;51.096;17.190;2022-12-07T05:31:03;3.00;99.90
21928;DHT22;11128;51.096;17.190;2022-12-07T05:36:05;2.10;99.90
21928;DHT22;11128;51.096;17.190;2022-12-07T05:41:09;2.10;99.90
21928;DHT22;11128;51.096;17.190;2022-12-07T05:46:32;2.10;99.90
21928;DHT22;11128;51.096;17.190;2022-12-07T05:51:34;2.60;99.90
21928;DHT22;11128;51.096;17.190;2022-12-07T05:56:35;2.90;99.90
21928;DHT22;11128;51.096;17.190;2022-12-07T06:01:37;2.20;99.90
21928;DHT22;11128;51.096;17.190;2022-12-07T06:06:38;3.00;99.90
21928;DHT22;11128;51.096;17.190;2022-12-07T06:11:40;2.20;99.90
21928;DHT22;11128;51.096;17.190;2022-12-07T06:17:00;2.20;99.90
21928;DHT22;11128;51.096;17.190;2022-12-07T06:22:02;2.20;99.90
21928;DHT22;11128;51.096;17.190;2022-12-07T06:27:06;2.40;99.90
21928;DHT22;11128;51.096;17.190;2022-12-07T06:32:07;2.60;99.90
21928;DHT22;11128;51.096;17.190;2022-12-07T06:37:09;2.20;99.90
21928;DHT22;11128;51.096;17.190;2022-12-07T06:42:10;2.40;99.90
21928;DHT22;11128;51.096;17.190;2022-12-07T06:47:11;2.20;99.90
21928;DHT22;11128;51.096;17.190;2022-12-07T06:52:13;2.20;99.90
21928;DHT22;11128;51.096;17.190;2022-12-07T06:57:15;2.90;99.90
21928;DHT22;11128;51.096;17.190;2022-12-07T07:02:16;2.30;99.90
21928;DHT22;11128;51.096;17.190;2022-12-07T07:07:18;2.20;99.90
21928;DHT22;11128;51.096;17.190;2022-12-07T07:12:19;2.30;99.90
21928;DHT22;11128;51.096;17.190;2022-12-07T07:17:20;2.30;99.90
21928;DHT22;11128;51.096;17.190;2022-12-07T07:22:22;2.30;99.90
21928;DHT22;11128;51.096;17.190;2022-12-07T07:27:23;2.40;99.90
21928;DHT22;11128;51.096;17.190;2022-12-07T07:32:25;2.30;99.90
21928;DHT22;11128;51.096;17.190;2022-12-07T07:37:26;2.50;99.90
21928;DHT22;11128;51.096;17.190;2022-12-07T07:42:28;2.30;99.90
21928;DHT22;11128;51.096;17.190;2022-12-07T07:47:30;2.20;99.90
21928;DHT22;11128;51.096;17.190;2022-12-07T07:52:31;2.30;99.90
21928;DHT22;11128;51.096;17.190;2022-12-07T07:57:32;2.80;99.90
21928;DHT22;11128;51.096;17.190;2022-12-07T08:02:34;2.50;99.90
21928;DHT22;11128;51.096;17.190;2022-12-07T08:07:35;2.50;99.90
21928;DHT22;11128;51.096;17.190;2022-12-07T08:12:39;2.60;99.90
21928;DHT22;11128;51.096;17.190;2022-12-07T08:18:00;2.60;99.90
21928;DHT22;11128;51.096;17.190;2022-12-07T08:23:01;2.70;99.90
21928;DHT22;11128;51.096;17.190;2022-12-07T08:28:03;3.40;99.90
21928;DHT22;11128;51.096;17.190;2022-12-07T08:33:05;3.90;99.90
21928;DHT22;11128;51.096;17.190;2022-12-07T08:38:06;2.60;99.90
21928;DHT22;11128;51.096;17.190;2022-12-07T08:43:08;4.00;99.90
21928;DHT22;11128;51.096;17.190;2022-12-07T08:48:11;2.90;99.90
21928;DHT22;11128;51.096;17.190;2022-12-07T08:53:14;3.00;99.90
21928;DHT22;11128;51.096;17.190;2022-12-07T08:58:16;3.50;99.90
21928;DHT22;11128;51.096;17.190;2022-12-07T09:03:17;3.90;99.90
21928;DHT22;11128;51.096;17.190;2022-12-07T09:08:20;4.00;99.90
21928;DHT22;11128;51.096;17.190;2022-12-07T09:13:22;3.90;99.90
21928;DHT22;11128;51.096;17.190;2022-12-07T09:18:24;4.10;99.90
21928;DHT22;11128;51.096;17.190;2022-12-07T09:23:28;4.60;99.90
21928;DHT22;11128;51.096;17.190;2022-12-07T09:28:31;5.20;99.90
21928;DHT22;11128;51.096;17.190;2022-12-07T09:33:32;5.10;99.90
21928;DHT22;11128;51.096;17.190;2022-12-07T09:38:34;4.90;99.90
21928;DHT22;11128;51.096;17.190;2022-12-07T09:43:37;4.50;99.90
21928;DHT22;11128;51.096;17.190;2022-12-07T09:48:40;4.60;99.90
21928;DHT22;11128;51.096;17.190;2022-12-07T09:53:44;4.70;99.90
21928;DHT22;11128;51.096;17.190;2022-12-07T09:58:46;6.80;99.90
21928;DHT22;11128;51.096;17.190;2022-12-07T10:03:50;4.70;99.90
21928;DHT22;11128;51.096;17.190;2022-12-07T10:08:51;4.70;99.90
21928;DHT22;11128;51.096;17.190;2022-12-07T10:13:53;4.30;99.90
21928;DHT22;11128;51.096;17.190;2022-12-07T10:18:55;4.20;99.90
21928;DHT22;11128;51.096;17.190;2022-12-07T10:24:04;4.20;99.90
21928;DHT22;11128;51.096;17.190;2022-12-07T10:34:34;4.20;99.90
21928;DHT22;11128;51.096;17.190;2022-12-07T10:39:52;4.00;99.90
21928;DHT22;11128;51.096;17.190;2022-12-07T10:50:45;3.90;99.90
21928;DHT22;11128;51.096;17.190;2022-12-07T11:06:39;3.70;99.90
21928;DHT22;11128;51.096;17.190;2022-12-07T11:17:19;3.70;99.90
21928;DHT22;11128;51.096;17.190;2022-12-07T11:38:49;3.50;99.90
21928;DHT22;11128;51.096;17.190;2022-12-07T11:44:22;3.60;99.90
21928;DHT22;11128;51.096;17.190;2022-12-07T11:54:53;3.60;99.90
21928;DHT22;11128;51.096;17.190;2022-12-07T12:00:00;4.90;99.90
21928;DHT22;11128;51.096;17.190;2022-12-07T12:05:16;4.10;99.90
21928;DHT22;11128;51.096;17.190;2022-12-07T12:21:16;3.60;99.90
21928;DHT22;11128;51.096;17.190;2022-12-07T12:26:24;3.60;99.90
21928;DHT22;11128;51.096;17.190;2022-12-07T12:46:38;3.60;99.90
21928;DHT22;11128;51.096;17.190;2022-12-07T13:02:26;3.60;99.90
21928;DHT22;11128;51.096;17.190;2022-12-07T13:29:35;3.60;99.90
21928;DHT22;11128;51.096;17.190;2022-12-07T13:39:33;3.60;99.90
21928;DHT22;11128;51.096;17.190;2022-12-07T13:44:40;3.60;99.90
21928;DHT22;11128;51.096;17.190;2022-12-07T13:49:53;3.90;99.90
21928;DHT22;11128;51.096;17.190;2022-12-07T13:55:14;3.60;99.90
21928;DHT22;11128;51.096;17.190;2022-12-07T14:05:26;3.60;99.90
21928;DHT22;11128;51.096;17.190;2022-12-07T14:10:36;3.50;99.90
21928;DHT22;11128;51.096;17.190;2022-12-07T14:15:38;3.70;99.90
21928;DHT22;11128;51.096;17.190;2022-12-07T14:20:41;3.50;99.90
21928;DHT22;11128;51.096;17.190;2022-12-07T14:25:52;4.50;99.90
21928;DHT22;11128;51.096;17.190;2022-12-07T14:30:54;3.50;99.90
21928;DHT22;11128;51.096;17.190;2022-12-07T14:35:56;3.50;99.90
21928;DHT22;11128;51.096;17.190;2022-12-07T14:40:59;3.50;99.90
21928;DHT22;11128;51.096;17.190;2022-12-07T14:46:23;3.40;99.90
21928;DHT22;11128;51.096;17.190;2022-12-07T14:51:25;3.40;99.90
21928;DHT22;11128;51.096;17.190;2022-12-07T14:56:26;3.30;99.90
21928;DHT22;11128;51.096;17.190;2022-12-07T15:01:28;3.30;99.90
21928;DHT22;11128;51.096;17.190;2022-12-07T15:06:30;3.20;99.90
21928;DHT22;11128;51.096;17.190;2022-12-07T15:11:32;3.80;99.90
21928;DHT22;11128;51.096;17.190;2022-12-07T15:16:35;3.10;99.90
21928;DHT22;11128;51.096;17.190;2022-12-07T15:21:37;3.10;99.90
21928;DHT22;11128;51.096;17.190;2022-12-07T15:26:40;3.40;99.90
21928;DHT22;11128;51.096;17.190;2022-12-07T15:31:42;3.10;99.90
21928;DHT22;11128;51.096;17.190;2022-12-07T15:36:43;3.00;99.90
21928;DHT22;11128;51.096;17.190;2022-12-07T15:41:45;3.00;99.90
21928;DHT22;11128;51.096;17.190;2022-12-07T15:46:47;2.90;99.90
21928;DHT22;11128;51.096;17.190;2022-12-07T15:51:48;2.90;99.90
21928;DHT22;11128;51.096;17.190;2022-12-07T15:56:50;3.00;99.90
21928;DHT22;11128;51.096;17.190;2022-12-07T16:01:52;3.60;99.90
21928;DHT22;11128;51.096;17.190;2022-12-07T16:06:53;3.00;99.90
21928;DHT22;11128;51.096;17.190;2022-12-07T16:11:55;2.90;99.90
21928;DHT22;11128;51.096;17.190;2022-12-07T16:16:56;3.00;99.90
21928;DHT22;11128;51.096;17.190;2022-12-07T16:21:58;3.10;99.90
21928;DHT22;11128;51.096;17.190;2022-12-07T16:27:00;2.90;99.90
21928;DHT22;11128;51.096;17.190;2022-12-07T16:32:02;2.90;99.90
21928;DHT22;11128;51.096;17.190;2022-12-07T16:37:04;2.80;99.90
21928;DHT22;11128;51.096;17.190;2022-12-07T16:42:05;2.80;99.90
21928;DHT22;11128;51.096;17.190;2022-12-07T16:47:07;2.80;99.90
21928;DHT22;11128;51.096;17.190;2022-12-07T16:52:08;3.40;99.90
21928;DHT22;11128;51.096;17.190;2022-12-07T16:57:10;2.80;99.90
21928;DHT22;11128;51.096;17.190;2022-12-07T17:02:12;2.60;99.90
21928;DHT22;11128;51.096;17.190;2022-12-07T17:07:13;2.60;99.90
21928;DHT22;11128;51.096;17.190;2022-12-07T17:12:15;2.50;99.90
21928;DHT22;11128;51.096;17.190;2022-12-07T17:17:18;2.50;99.90
21928;DHT22;11128;51.096;17.190;2022-12-07T17:22:19;2.40;99.90
21928;DHT22;11128;51.096;17.190;2022-12-07T17:27:21;2.30;99.90
21928;DHT22;11128;51.096;17.190;2022-12-07T17:32:22;2.30;99.90
21928;DHT22;11128;51.096;17.190;2022-12-07T17:37:24;2.20;99.90
21928;DHT22;11128;51.096;17.190;2022-12-07T17:42:27;2.10;99.90
21928;DHT22;11128;51.096;17.190;2022-12-07T17:47:38;2.10;99.90
21928;DHT22;11128;51.096;17.190;2022-12-07T17:52:40;2.00;99.90
21928;DHT22;11128;51.096;17.190;2022-12-07T17:58:00;2.70;99.90
21928;DHT22;11128;51.096;17.190;2022-12-07T18:03:01;1.80;99.90
21928;DHT22;11128;51.096;17.190;2022-12-07T18:08:04;1.60;99.90
21928;DHT22;11128;51.096;17.190;2022-12-07T18:13:05;1.60;99.90
21928;DHT22;11128;51.096;17.190;2022-12-07T18:18:25;1.50;99.90
21928;DHT22;11128;51.096;17.190;2022-12-07T18:23:27;2.80;99.90
21928;DHT22;11128;51.096;17.190;2022-12-07T18:28:29;1.50;99.90
21928;DHT22;11128;51.096;17.190;2022-12-07T18:33:31;1.80;99.90
21928;DHT22;11128;51.096;17.190;2022-12-07T18:38:33;1.40;99.90
21928;DHT22;11128;51.096;17.190;2022-12-07T18:43:35;1.30;99.90
21928;DHT22;11128;51.096;17.190;2022-12-07T18:48:37;1.60;99.90
21928;DHT22;11128;51.096;17.190;2022-12-07T18:53:39;1.30;99.90
21928;DHT22;11128;51.096;17.190;2022-12-07T18:58:43;1.20;99.90
21928;DHT22;11128;51.096;17.190;2022-12-07T19:04:03;1.10;99.90
21928;DHT22;11128;51.096;17.190;2022-12-07T19:09:06;1.10;99.90
21928;DHT22;11128;51.096;17.190;2022-12-07T19:14:08;1.10;99.90
21928;DHT22;11128;51.096;17.190;2022-12-07T19:19:10;1.10;99.90
21928;DHT22;11128;51.096;17.190;2022-12-07T19:24:12;1.00;99.90
21928;DHT22;11128;51.096;17.190;2022-12-07T19:29:15;1.00;99.90
21928;DHT22;11128;51.096;17.190;2022-12-07T19:34:17;1.00;99.90
21928;DHT22;11128;51.096;17.190;2022-12-07T19:39:19;1.00;99.90
21928;DHT22;11128;51.096;17.190;2022-12-07T19:44:23;1.00;99.90
21928;DHT22;11128;51.096;17.190;2022-12-07T19:49:27;1.00;99.90
21928;DHT22;11128;51.096;17.190;2022-12-07T19:54:31;1.00;99.90
21928;DHT22;11128;51.096;17.190;2022-12-07T19:59:33;1.00;99.90
21928;DHT22;11128;51.096;17.190;2022-12-07T20:04:37;1.30;99.90
21928;DHT22;11128;51.096;17.190;2022-12-07T20:09:40;1.00;99.90
21928;DHT22;11128;51.096;17.190;2022-12-07T20:14:42;1.00;99.90
21928;DHT22;11128;51.096;17.190;2022-12-07T20:19:43;1.60;99.90
21928;DHT22;11128;51.096;17.190;2022-12-07T20:24:45;1.10;99.90
21928;DHT22;11128;51.096;17.190;2022-12-07T20:29:46;1.10;99.90
21928;DHT22;11128;51.096;17.190;2022-12-07T20:34:53;1.10;99.90
21928;DHT22;11128;51.096;17.190;2022-12-07T20:39:55;1.10;99.90
21928;DHT22;11128;51.096;17.190;2022-12-07T20:44:57;1.10;99.90
21928;DHT22;11128;51.096;17.190;2022-12-07T20:50:01;1.10;99.90
21928;DHT22;11128;51.096;17.190;2022-12-07T20:55:04;1.10;99.90
21928;DHT22;11128;51.096;17.190;2022-12-07T21:00:06;1.10;99.90
21928;DHT22;11128;51.096;17.190;2022-12-07T21:05:08;1.10;99.90
21928;DHT22;11128;51.096;17.190;2022-12-07T21:10:11;1.20;99.90
21928;DHT22;11128;51.096;17.190;2022-12-07T21:15:14;1.30;99.90
21928;DHT22;11128;51.096;17.190;2022-12-07T21:20:15;1.40;99.90
21928;DHT22;11128;51.096;17.190;2022-12-07T21:25:22;1.40;99.90
21928;DHT22;11128;51.096;17.190;2022-12-07T21:30:29;1.60;99.90
21928;DHT22;11128;51.096;17.190;2022-12-07T21:35:31;1.70;99.90
21928;DHT22;11128;51.096;17.190;2022-12-07T21:40:34;1.80;99.90
21928;DHT22;11128;51.096;17.190;2022-12-07T21:45:35;1.90;99.90
21928;DHT22;11128;51.096;17.190;2022-12-07T21:50:38;2.70;99.90
21928;DHT22;11128;51.096;17.190;2022-12-07T21:55:41;2.00;99.90
21928;DHT22;11128;51.096;17.190;2022-12-07T22:00:43;2.00;99.90
21928;DHT22;11128;51.096;17.190;2022-12-07T22:05:45;2.10;99.90
21928;DHT22;11128;51.096;17.190;2022-12-07T22:10:46;2.10;99.90
21928;DHT22;11128;51.096;17.190;2022-12-07T22:15:47;2.20;99.90
21928;DHT22;11128;51.096;17.190;2022-12-07T22:20:49;2.40;99.90
21928;DHT22;11128;51.096;17.190;2022-12-07T22:25:50;2.20;99.90
21928;DHT22;11128;51.096;17.190;2022-12-07T22:30:51;2.20;99.90
21928;DHT22;11128;51.096;17.190;2022-12-07T22:35:54;2.10;99.90
21928;DHT22;11128;51.096;17.190;2022-12-07T22:40:56;2.20;99.90
21928;DHT22;11128;51.096;17.190;2022-12-07T22:45:59;2.10;99.90
21928;DHT22;11128;51.096;17.190;2022-12-07T22:51:00;2.10;99.90
21928;DHT22;11128;51.096;17.190;2022-12-07T22:56:02;2.10;99.90
21928;DHT22;11128;51.096;17.190;2022-12-07T23:01:08;2.10;99.90
21928;DHT22;11128;51.096;17.190;2022-12-07T23:06:18;2.00;99.90
21928;DHT22;11128;51.096;17.190;2022-12-07T23:11:23;2.00;99.90
21928;DHT22;11128;51.096;17.190;2022-12-07T23:16:44;2.00;99.90
21928;DHT22;11128;51.096;17.190;2022-12-07T23:21:46;1.90;99.90
21928;DHT22;11128;51.096;17.190;2022-12-07T23:26:48;1.80;99.90
21928;DHT22;11128;51.096;17.190;2022-12-07T23:31:49;1.80;99.90
21928;DHT22;11128;51.096;17.190;2022-12-07T23:36:51;1.70;99.90
21928;DHT22;11128;51.096;17.190;2022-12-07T23:41:52;1.70;99.90
21928;DHT22;11128;51.096;17.190;2022-12-07T23:46:54;1.60;99.90
21928;DHT22;11128;51.096;17.190;2022-12-07T23:51:55;1.70;99.90
21928;DHT22;11128;51.096;17.190;2022-12-07T23:56:57;2.00;99.90
